Time;durP1;ratioP1;P1;durP2;ratioP2;P2;SDS_P1;SDS_P2;PMS_P1;PMS_P2;Temp;Humidity;BMP_temperature;BMP_pressure;BME280_temperature;BME280_humidity;BME280_pressure;Samples;Min_cycle;Max_cycle;Signal;HPM_P1;HPM_P2
2021/11/28 00:00:21;;;;;;;36.58;18.27;;;4.00;99.90;;;;;;5023792;28;20040;-80
2021/11/28 00:02:48;;;;;;;35.50;18.17;;;4.00;99.90;;;;;;5033176;28;20469;-81
2021/11/28 00:05:15;;;;;;;35.10;18.23;;;4.10;99.90;;;;;;5031885;28;20469;-81
2021/11/28 00:15:08;;;;;;;36.35;17.98;;;4.00;99.90;;;;;;5031628;28;20037;-81
2021/11/28 00:17:34;;;;;;;34.60;17.33;;;4.10;99.90;;;;;;5031595;28;20041;-81
2021/11/28 00:20:01;;;;;;;41.17;18.42;;;4.10;99.90;;;;;;5039818;28;20040;-81
2021/11/28 00:22:27;;;;;;;35.40;18.15;;;4.10;99.90;;;;;;5031443;28;20492;-81
2021/11/28 00:24:53;;;;;;;40.50;18.30;;;4.10;99.90;;;;;;5032174;28;20025;-81
2021/11/28 00:27:18;;;;;;;35.85;17.42;;;4.10;99.90;;;;;;5032398;28;20462;-81
2021/11/28 00:29:44;;;;;;;36.35;18.85;;;4.10;99.90;;;;;;5020324;28;20026;-81
2021/11/28 00:32:10;;;;;;;39.47;18.33;;;4.10;99.90;;;;;;5023692;28;20033;-81
2021/11/28 00:34:35;;;;;;;32.80;17.15;;;4.10;99.90;;;;;;5031323;28;20033;-82
2021/11/28 00:37:01;;;;;;;37.13;17.73;;;4.10;99.90;;;;;;5032222;28;20052;-81
2021/11/28 00:39:26;;;;;;;39.13;19.25;;;4.10;99.90;;;;;;5022815;28;20026;-82
2021/11/28 00:41:52;;;;;;;43.42;19.27;;;4.10;99.90;;;;;;5029229;28;20033;-82
2021/11/28 00:44:17;;;;;;;44.70;19.42;;;4.10;99.90;;;;;;5029654;28;20045;-82
2021/11/28 00:46:43;;;;;;;39.63;18.63;;;4.10;99.90;;;;;;5030509;28;20532;-82
2021/11/28 00:49:15;;;;;;;40.67;19.67;;;4.10;99.90;;;;;;5034101;28;20045;-80
2021/11/28 00:54:13;;;;;;;42.33;19.20;;;4.10;99.90;;;;;;5031818;28;19909;-82
2021/11/28 00:56:39;;;;;;;41.50;19.95;;;4.00;99.90;;;;;;5032069;28;20038;-82
2021/11/28 00:59:04;;;;;;;43.63;19.42;;;4.10;99.90;;;;;;5025447;28;20022;-81
2021/11/28 01:01:30;;;;;;;48.13;21.23;;;4.10;99.90;;;;;;5019929;28;20030;-81
2021/11/28 01:03:56;;;;;;;47.95;20.38;;;4.10;99.90;;;;;;5027768;28;20029;-81
2021/11/28 01:06:21;;;;;;;44.58;20.75;;;4.10;99.90;;;;;;5030521;28;20449;-81
2021/11/28 01:08:47;;;;;;;41.10;20.02;;;4.10;99.90;;;;;;5042099;28;20494;-81
2021/11/28 01:11:13;;;;;;;39.70;20.48;;;4.10;99.90;;;;;;5031020;28;20056;-82
2021/11/28 01:13:38;;;;;;;41.95;20.58;;;4.10;99.90;;;;;;5031957;28;20070;-82
2021/11/28 01:16:04;;;;;;;41.40;20.52;;;4.00;99.90;;;;;;5030719;28;20087;-81
2021/11/28 01:18:32;;;;;;;46.10;19.67;;;4.10;99.90;;;;;;5030464;28;20054;-81
2021/11/28 01:20:57;;;;;;;44.35;19.27;;;4.10;99.90;;;;;;5028577;28;20036;-81
2021/11/28 01:23:23;;;;;;;44.17;20.92;;;4.00;99.90;;;;;;5038973;28;20457;-81
2021/11/28 01:25:49;;;;;;;45.97;21.42;;;4.00;99.90;;;;;;5031209;28;20060;-81
2021/11/28 01:28:14;;;;;;;50.72;21.30;;;4.00;99.90;;;;;;5030537;28;20017;-82
2021/11/28 01:30:40;;;;;;;49.42;20.45;;;4.00;99.90;;;;;;5035376;28;20041;-81
2021/11/28 01:33:05;;;;;;;46.63;21.20;;;4.00;99.90;;;;;;5044770;28;20029;-81
2021/11/28 01:35:31;;;;;;;46.65;20.65;;;4.00;99.90;;;;;;5030877;28;20045;-81
2021/11/28 01:37:56;;;;;;;43.08;20.60;;;4.00;99.90;;;;;;5041130;28;20076;-81
2021/11/28 01:40:22;;;;;;;45.33;21.88;;;4.10;99.90;;;;;;5031219;28;20396;-81
2021/11/28 01:42:51;;;;;;;44.15;20.23;;;4.10;99.90;;;;;;5030320;28;20396;-82
2021/11/28 01:45:18;;;;;;;40.75;19.48;;;4.10;99.90;;;;;;5031258;28;20044;-81
2021/11/28 01:47:44;;;;;;;41.72;19.83;;;4.10;99.90;;;;;;5012068;28;20101;-81
2021/11/28 01:50:10;;;;;;;48.58;20.80;;;4.10;99.90;;;;;;5027389;28;20172;-81
2021/11/28 01:52:36;;;;;;;40.72;19.65;;;4.10;99.90;;;;;;5026031;28;20363;-81
2021/11/28 01:55:06;;;;;;;45.53;19.23;;;4.10;99.90;;;;;;5022348;28;20018;-81
2021/11/28 01:57:32;;;;;;;43.55;21.02;;;4.10;99.90;;;;;;5027064;28;20044;-81
2021/11/28 01:59:58;;;;;;;47.78;21.17;;;4.10;99.90;;;;;;5030522;28;20031;-81
2021/11/28 02:02:24;;;;;;;45.88;19.70;;;4.10;99.90;;;;;;5016400;28;20700;-81
2021/11/28 02:04:51;;;;;;;39.25;18.92;;;4.10;99.90;;;;;;5013428;28;20663;-81
2021/11/28 02:07:17;;;;;;;36.33;18.27;;;4.10;99.90;;;;;;5027696;28;20100;-81
2021/11/28 02:09:43;;;;;;;42.00;18.45;;;4.10;99.90;;;;;;5046610;28;20067;-82
2021/11/28 02:12:09;;;;;;;47.60;19.27;;;4.00;99.90;;;;;;5032312;28;20021;-82
2021/11/28 02:14:34;;;;;;;48.60;19.95;;;4.00;99.90;;;;;;5036238;28;20029;-81
2021/11/28 02:17:00;;;;;;;35.60;17.55;;;4.00;99.90;;;;;;5034897;28;20107;-81
2021/11/28 02:19:25;;;;;;;41.17;18.90;;;4.00;99.90;;;;;;5031916;28;20036;-81
2021/11/28 02:21:51;;;;;;;36.70;17.05;;;4.00;99.90;;;;;;5032353;28;20037;-81
2021/11/28 02:24:17;;;;;;;34.60;16.90;;;4.00;99.90;;;;;;5034948;28;20025;-81
2021/11/28 02:26:42;;;;;;;32.72;16.67;;;4.00;99.90;;;;;;5025713;28;20038;-81
2021/11/28 02:29:08;;;;;;;36.45;17.70;;;4.00;99.90;;;;;;5034463;28;20028;-81
2021/11/28 02:31:33;;;;;;;36.20;17.38;;;4.00;99.90;;;;;;5034440;28;20116;-82
2021/11/28 02:33:59;;;;;;;35.25;17.15;;;4.00;99.90;;;;;;5031625;28;20071;-81
2021/11/28 02:36:25;;;;;;;35.50;16.83;;;4.00;99.90;;;;;;5034946;28;20075;-82
2021/11/28 02:38:51;;;;;;;35.17;17.13;;;4.00;99.90;;;;;;5024636;28;20110;-82
2021/11/28 02:41:16;;;;;;;33.90;17.42;;;4.00;99.90;;;;;;5035070;28;20576;-81
2021/11/28 02:43:42;;;;;;;37.13;17.10;;;4.00;99.90;;;;;;5031992;28;20116;-82
2021/11/28 02:46:09;;;;;;;35.13;16.58;;;4.00;99.90;;;;;;5022665;28;20465;-82
2021/11/28 02:48:35;;;;;;;34.33;16.30;;;4.00;99.90;;;;;;5027647;28;20510;-81
2021/11/28 02:51:02;;;;;;;38.35;17.63;;;4.00;99.90;;;;;;5030602;28;20037;-81
2021/11/28 02:53:28;;;;;;;33.92;17.35;;;4.00;99.90;;;;;;5034737;28;20021;-82
2021/11/28 02:55:56;;;;;;;38.15;17.42;;;4.00;99.90;;;;;;5031002;28;20509;-82
2021/11/28 02:58:24;;;;;;;38.90;17.30;;;4.00;99.90;;;;;;5033724;28;20443;-81
2021/11/28 03:00:56;;;;;;;36.58;16.58;;;4.00;99.90;;;;;;5034227;28;20033;-81
2021/11/28 03:03:22;;;;;;;33.10;17.67;;;4.00;99.90;;;;;;5034036;28;20100;-82
2021/11/28 03:05:48;;;;;;;31.10;16.63;;;4.00;99.90;;;;;;5032791;28;20472;-82
2021/11/28 03:08:15;;;;;;;31.33;16.35;;;4.10;99.90;;;;;;5033433;28;20084;-82
2021/11/28 03:10:44;;;;;;;31.05;15.23;;;4.00;99.90;;;;;;5024567;28;20033;-81
2021/11/28 03:13:31;;;;;;;34.25;17.65;;;4.00;99.90;;;;;;5029931;28;20033;-81
2021/11/28 03:16:00;;;;;;;35.83;17.65;;;4.00;99.90;;;;;;5027159;28;20037;-81
2021/11/28 03:18:28;;;;;;;38.08;18.73;;;4.00;99.90;;;;;;5030267;28;20060;-81
2021/11/28 03:20:56;;;;;;;48.75;20.00;;;4.00;99.90;;;;;;5037428;28;20115;-81
2021/11/28 03:23:25;;;;;;;41.67;18.70;;;3.90;99.90;;;;;;5032452;28;20500;-81
2021/11/28 03:26:01;;;;;;;43.20;19.92;;;3.90;99.90;;;;;;5033824;28;20025;-81
2021/11/28 03:28:27;;;;;;;46.53;20.92;;;4.00;99.90;;;;;;5032096;28;20030;-81
2021/11/28 03:30:52;;;;;;;45.60;20.20;;;4.00;99.90;;;;;;5025563;28;20030;-81
2021/11/28 03:33:18;;;;;;;51.35;21.55;;;4.00;99.90;;;;;;5039496;28;20026;-81
2021/11/28 03:35:43;;;;;;;51.25;21.67;;;4.00;99.90;;;;;;5033664;28;20679;-81
2021/11/28 03:38:10;;;;;;;50.00;22.58;;;4.00;99.90;;;;;;5024599;28;20516;-81
2021/11/28 03:40:37;;;;;;;53.30;22.65;;;4.00;99.90;;;;;;5024757;28;20033;-81
2021/11/28 03:43:03;;;;;;;51.72;22.48;;;4.00;99.90;;;;;;5030858;28;20072;-81
2021/11/28 03:45:29;;;;;;;52.22;22.95;;;4.00;99.90;;;;;;5032975;28;20033;-81
2021/11/28 03:47:54;;;;;;;54.25;22.92;;;4.10;99.90;;;;;;5032678;28;20462;-81
2021/11/28 03:50:21;;;;;;;48.13;22.00;;;4.10;99.90;;;;;;5026161;28;20393;-80
2021/11/28 03:52:47;;;;;;;53.95;24.50;;;4.10;99.90;;;;;;5025089;28;20057;-82
2021/11/28 03:55:14;;;;;;;49.97;22.52;;;4.10;99.90;;;;;;5029725;28;20493;-81
2021/11/28 03:57:40;;;;;;;55.10;24.10;;;4.00;99.90;;;;;;5032399;28;20108;-81
2021/11/28 04:00:10;;;;;;;63.00;24.27;;;4.00;99.90;;;;;;5033134;28;20478;-81
2021/11/28 04:02:37;;;;;;;57.75;24.00;;;4.00;99.90;;;;;;5034141;28;20029;-81
2021/11/28 04:05:03;;;;;;;58.42;25.45;;;4.00;99.90;;;;;;5032119;28;20029;-81
2021/11/28 04:07:29;;;;;;;60.17;24.83;;;4.00;99.90;;;;;;5022827;28;20021;-81
2021/11/28 04:09:54;;;;;;;61.05;24.85;;;4.00;99.90;;;;;;5029603;28;20048;-82
2021/11/28 04:12:20;;;;;;;59.63;26.08;;;4.00;99.90;;;;;;5025990;28;20022;-81
2021/11/28 04:14:45;;;;;;;57.20;23.52;;;4.10;99.90;;;;;;5031463;28;20116;-81
2021/11/28 04:17:11;;;;;;;56.05;24.48;;;4.00;99.90;;;;;;5032718;28;20041;-81
2021/11/28 04:19:36;;;;;;;61.13;24.40;;;4.00;99.90;;;;;;5036974;28;20032;-81
2021/11/28 04:22:02;;;;;;;56.75;23.63;;;4.00;99.90;;;;;;5048020;28;20060;-81
2021/11/28 04:24:28;;;;;;;61.03;25.17;;;4.00;99.90;;;;;;5029203;28;20393;-81
2021/11/28 04:26:54;;;;;;;56.13;23.05;;;4.00;99.90;;;;;;5045323;28;20025;-81
2021/11/28 04:29:19;;;;;;;54.15;23.83;;;4.00;99.90;;;;;;5030648;28;20385;-81
2021/11/28 04:31:47;;;;;;;53.55;23.27;;;4.00;99.90;;;;;;5031561;28;20112;-81
2021/11/28 04:34:13;;;;;;;54.75;23.83;;;4.00;99.90;;;;;;5031522;28;20396;-81
2021/11/28 04:36:38;;;;;;;52.88;23.73;;;3.90;99.90;;;;;;5030233;28;20037;-81
2021/11/28 04:39:04;;;;;;;54.17;24.08;;;4.00;99.90;;;;;;5030475;28;20117;-81
2021/11/28 04:41:29;;;;;;;53.90;23.73;;;4.00;99.90;;;;;;5028500;28;20021;-81
2021/11/28 04:43:55;;;;;;;54.20;23.38;;;4.00;99.90;;;;;;5042822;28;20487;-81
2021/11/28 04:46:20;;;;;;;51.22;23.17;;;3.90;99.90;;;;;;5032318;28;20100;-80
2021/11/28 04:48:46;;;;;;;52.42;23.50;;;4.00;99.90;;;;;;5029930;28;20485;-82
2021/11/28 04:51:11;;;;;;;58.13;24.80;;;4.00;99.90;;;;;;5029213;28;20030;-81
2021/11/28 04:53:37;;;;;;;51.20;23.05;;;4.00;99.90;;;;;;5036107;28;20040;-81
2021/11/28 04:56:03;;;;;;;57.47;23.92;;;4.00;99.90;;;;;;5039313;28;20042;-82
2021/11/28 04:58:28;;;;;;;57.63;23.98;;;4.00;99.90;;;;;;5023148;28;20090;-81
2021/11/28 05:00:54;;;;;;;56.83;24.58;;;4.00;99.90;;;;;;5030345;28;20409;-82
2021/11/28 05:03:19;;;;;;;56.13;24.10;;;4.00;99.90;;;;;;5031282;28;20397;-81
2021/11/28 05:05:45;;;;;;;53.15;23.13;;;4.00;99.90;;;;;;5031740;28;20508;-82
2021/11/28 05:08:10;;;;;;;53.15;23.92;;;4.00;99.90;;;;;;5031846;28;20442;-82
2021/11/28 05:10:36;;;;;;;54.25;22.55;;;3.90;99.90;;;;;;5032164;28;20053;-81
2021/11/28 05:13:02;;;;;;;60.13;25.92;;;4.00;99.90;;;;;;5031661;28;20032;-81
2021/11/28 05:15:27;;;;;;;52.05;24.83;;;3.90;99.90;;;;;;5032091;28;20745;-82
2021/11/28 05:17:53;;;;;;;53.85;24.35;;;3.90;99.90;;;;;;5027941;28;20543;-82
2021/11/28 05:20:18;;;;;;;56.58;23.92;;;3.90;99.90;;;;;;5031185;28;20026;-82
2021/11/28 05:22:44;;;;;;;55.30;23.52;;;4.00;99.90;;;;;;5028622;28;20033;-82
2021/11/28 05:25:11;;;;;;;56.00;24.63;;;4.00;99.90;;;;;;5027739;28;20025;-82
2021/11/28 05:27:36;;;;;;;55.47;23.38;;;4.00;99.90;;;;;;5021657;28;20033;-82
2021/11/28 05:30:04;;;;;;;54.70;24.90;;;4.00;99.90;;;;;;5020286;28;20026;-82
2021/11/28 05:32:30;;;;;;;58.22;24.10;;;3.90;99.90;;;;;;5016336;28;20425;-82
2021/11/28 05:34:55;;;;;;;51.08;22.30;;;3.90;99.90;;;;;;5029824;28;20034;-82
2021/11/28 05:37:21;;;;;;;52.45;24.58;;;3.90;99.90;;;;;;5020814;28;20478;-82
2021/11/28 05:39:47;;;;;;;53.10;23.83;;;3.90;99.90;;;;;;5011989;28;20026;-82
2021/11/28 05:42:12;;;;;;;53.17;23.23;;;3.90;99.90;;;;;;5019787;28;20469;-82
2021/11/28 05:44:38;;;;;;;49.45;23.08;;;3.80;99.90;;;;;;5031058;28;20556;-82
2021/11/28 05:47:04;;;;;;;55.28;23.85;;;3.80;99.90;;;;;;5026553;28;20389;-82
2021/11/28 05:49:30;;;;;;;50.47;24.10;;;3.80;99.90;;;;;;5042683;28;20022;-82
2021/11/28 05:51:55;;;;;;;56.67;23.73;;;3.80;99.90;;;;;;5034456;28;20029;-82
2021/11/28 05:54:21;;;;;;;53.45;23.92;;;3.80;99.90;;;;;;5029832;28;20026;-82
2021/11/28 05:56:47;;;;;;;57.45;24.38;;;3.70;99.90;;;;;;5034285;28;20045;-82
2021/11/28 05:59:13;;;;;;;60.83;25.80;;;3.70;99.90;;;;;;5034899;28;20025;-82
2021/11/28 06:01:38;;;;;;;58.35;25.27;;;3.70;99.90;;;;;;5032312;28;20040;-82
2021/11/28 06:04:04;;;;;;;55.08;24.05;;;3.60;99.90;;;;;;5034728;28;20025;-82
2021/11/28 06:06:29;;;;;;;57.83;25.83;;;3.60;99.90;;;;;;5028411;28;20113;-81
2021/11/28 06:08:55;;;;;;;60.65;26.20;;;3.60;99.90;;;;;;5029481;28;20531;-80
2021/11/28 06:11:21;;;;;;;55.08;24.75;;;3.60;99.90;;;;;;5033885;28;20100;-82
2021/11/28 06:13:46;;;;;;;59.33;25.85;;;3.50;99.90;;;;;;5020913;28;20089;-84
2021/11/28 06:16:15;;;;;;;52.88;25.30;;;3.50;99.90;;;;;;5029342;28;20048;-82
2021/11/28 06:18:40;;;;;;;57.17;24.65;;;3.50;99.90;;;;;;5018346;28;20076;-83
2021/11/28 06:21:06;;;;;;;60.58;26.42;;;3.40;99.90;;;;;;5032029;28;20073;-83
2021/11/28 06:23:32;;;;;;;68.40;26.33;;;3.40;99.90;;;;;;5026622;28;20024;-83
2021/11/28 06:25:57;;;;;;;56.78;25.80;;;3.30;99.90;;;;;;5031378;28;20040;-83
2021/11/28 06:28:23;;;;;;;56.63;23.83;;;3.20;99.90;;;;;;5032833;28;20048;-83
2021/11/28 06:30:48;;;;;;;59.10;25.17;;;3.10;99.90;;;;;;5031439;28;20040;-83
2021/11/28 06:33:15;;;;;;;59.65;25.20;;;3.10;99.90;;;;;;5030032;28;20076;-83
2021/11/28 06:35:40;;;;;;;56.25;24.65;;;3.00;99.90;;;;;;5033079;28;20077;-83
2021/11/28 06:38:06;;;;;;;58.47;24.15;;;3.00;99.90;;;;;;5027321;28;20052;-82
2021/11/28 06:40:31;;;;;;;62.85;22.30;;;2.90;99.90;;;;;;5034748;28;20435;-83
2021/11/28 06:42:57;;;;;;;53.53;21.90;;;2.80;99.90;;;;;;5031753;28;20029;-82
2021/11/28 06:45:23;;;;;;;56.80;23.85;;;2.70;99.90;;;;;;5027420;28;20029;-83
2021/11/28 06:47:48;;;;;;;61.03;23.77;;;2.60;99.90;;;;;;5029056;28;20116;-83
2021/11/28 06:50:14;;;;;;;62.40;25.45;;;2.50;99.90;;;;;;5027130;28;20037;-82
2021/11/28 06:52:40;;;;;;;62.38;24.30;;;2.50;99.90;;;;;;5029932;28;20164;-81
2021/11/28 06:55:06;;;;;;;65.60;24.65;;;2.50;99.90;;;;;;5024186;28;20112;-81
2021/11/28 06:57:32;;;;;;;63.65;24.67;;;2.50;99.90;;;;;;5024793;28;20041;-81
2021/11/28 06:59:57;;;;;;;60.00;23.55;;;2.50;99.90;;;;;;5029240;28;20059;-79
2021/11/28 07:02:23;;;;;;;68.93;26.20;;;2.50;99.90;;;;;;5030456;28;20113;-81
2021/11/28 07:04:48;;;;;;;68.25;26.45;;;2.50;99.90;;;;;;5031273;28;20619;-81
2021/11/28 07:07:14;;;;;;;61.33;24.02;;;2.40;99.90;;;;;;5031338;28;20033;-83
2021/11/28 07:09:40;;;;;;;64.68;26.48;;;2.50;99.90;;;;;;5031664;28;20489;-82
2021/11/28 07:12:06;;;;;;;80.05;28.27;;;2.50;99.90;;;;;;5028214;28;20212;-80
2021/11/28 07:14:31;;;;;;;71.90;28.58;;;2.50;99.90;;;;;;5025293;28;20481;-81
2021/11/28 07:16:57;;;;;;;82.32;28.20;;;2.60;99.90;;;;;;5033954;28;20057;-80
2021/11/28 07:19:23;;;;;;;75.40;26.67;;;2.60;99.90;;;;;;5036121;28;20108;-81
2021/11/28 07:21:49;;;;;;;77.97;27.02;;;2.60;99.90;;;;;;5056226;28;20366;-82
2021/11/28 07:24:15;;;;;;;77.55;26.55;;;2.70;99.90;;;;;;5031069;28;20021;-82
2021/11/28 07:26:40;;;;;;;75.95;27.92;;;2.70;99.90;;;;;;5033965;28;20033;-81
2021/11/28 07:29:06;;;;;;;80.20;28.08;;;2.70;99.90;;;;;;5031420;28;20022;-82
2021/11/28 07:31:31;;;;;;;75.43;26.02;;;2.80;99.90;;;;;;5037731;28;20389;-82
2021/11/28 07:33:57;;;;;;;74.93;27.17;;;2.70;99.90;;;;;;5029870;28;20056;-83
2021/11/28 07:36:22;;;;;;;77.25;25.92;;;2.70;99.90;;;;;;5031558;28;20044;-82
2021/11/28 07:38:48;;;;;;;76.47;26.25;;;2.70;99.90;;;;;;5029693;28;20109;-83
2021/11/28 07:41:13;;;;;;;77.40;27.75;;;2.70;99.90;;;;;;5030202;28;20060;-83
2021/11/28 07:43:39;;;;;;;85.78;27.17;;;2.70;99.90;;;;;;5030850;28;20516;-83
2021/11/28 07:46:05;;;;;;;79.35;26.48;;;2.80;99.90;;;;;;5037813;28;20033;-84
2021/11/28 07:48:31;;;;;;;78.15;27.50;;;2.80;99.90;;;;;;5036488;28;20036;-83
2021/11/28 07:50:58;;;;;;;78.05;26.60;;;2.80;99.90;;;;;;5031079;28;20033;-82
2021/11/28 07:53:25;;;;;;;81.50;27.70;;;2.90;99.90;;;;;;5029217;28;20482;-82
2021/11/28 07:55:51;;;;;;;80.78;26.73;;;2.90;99.90;;;;;;5030711;28;20497;-84
2021/11/28 07:58:16;;;;;;;87.82;28.40;;;2.90;99.90;;;;;;5025387;28;20095;-84
2021/11/28 08:00:42;;;;;;;89.82;28.90;;;3.00;99.90;;;;;;5030037;28;20036;-83
2021/11/28 08:03:07;;;;;;;97.72;29.77;;;3.00;99.90;;;;;;5033632;28;20434;-84
2021/11/28 08:05:33;;;;;;;98.15;30.27;;;3.00;99.90;;;;;;5034794;28;20120;-85
2021/11/28 08:07:59;;;;;;;99.43;31.15;;;3.00;99.90;;;;;;5034648;28;20032;-81
2021/11/28 08:10:25;;;;;;;114.88;32.90;;;3.00;99.90;;;;;;5025771;28;20081;-82
2021/11/28 08:12:51;;;;;;;102.30;32.10;;;3.00;99.90;;;;;;5030330;28;20025;-82
2021/11/28 08:15:18;;;;;;;132.70;33.88;;;3.00;99.90;;;;;;5033483;28;20366;-83
2021/11/28 08:17:45;;;;;;;132.35;32.88;;;3.10;99.90;;;;;;5029010;28;20475;-83
2021/11/28 08:20:11;;;;;;;115.15;31.27;;;3.10;99.90;;;;;;5029073;28;20049;-82
2021/11/28 08:22:37;;;;;;;112.03;31.92;;;3.10;99.90;;;;;;5022455;28;20060;-83
2021/11/28 08:25:04;;;;;;;132.32;31.05;;;3.10;99.90;;;;;;5025923;28;20025;-83
2021/11/28 08:27:30;;;;;;;82.40;26.85;;;3.00;99.90;;;;;;5032078;28;20029;-84
2021/11/28 08:29:58;;;;;;;78.93;25.48;;;3.00;99.90;;;;;;5028048;28;20040;-84
2021/11/28 08:32:23;;;;;;;117.30;34.95;;;3.10;99.90;;;;;;5023184;28;20021;-85
2021/11/28 08:34:49;;;;;;;105.93;33.00;;;3.30;99.90;;;;;;5022998;28;20508;-82
2021/11/28 08:37:14;;;;;;;110.05;34.05;;;3.40;99.90;;;;;;5027308;28;20096;-83
2021/11/28 08:39:40;;;;;;;130.52;34.88;;;3.50;99.90;;;;;;5023031;28;20036;-80
2021/11/28 08:42:08;;;;;;;85.68;27.63;;;3.50;99.90;;;;;;5023952;28;20401;-80
2021/11/28 08:44:35;;;;;;;115.63;32.60;;;3.50;99.90;;;;;;5022755;28;20044;-81
2021/11/28 08:47:00;;;;;;;122.70;33.17;;;3.50;99.90;;;;;;5016668;28;20025;-81
2021/11/28 08:49:26;;;;;;;85.15;29.50;;;3.50;99.90;;;;;;5026097;28;20374;-81
2021/11/28 08:51:52;;;;;;;96.15;30.10;;;3.50;99.90;;;;;;5027510;28;20026;-81
2021/11/28 08:54:21;;;;;;;76.55;27.73;;;3.60;99.90;;;;;;5037654;28;20489;-82
2021/11/28 08:56:50;;;;;;;77.72;30.52;;;3.60;99.90;;;;;;5057059;28;20041;-81
2021/11/28 08:59:16;;;;;;;69.25;27.50;;;3.70;99.90;;;;;;5024857;28;20026;-82
2021/11/28 09:01:42;;;;;;;70.95;26.20;;;3.80;99.90;;;;;;5025095;28;20359;-82
2021/11/28 09:04:08;;;;;;;70.68;27.30;;;3.80;99.90;;;;;;5024851;28;20033;-82
2021/11/28 09:06:33;;;;;;;61.90;24.80;;;3.70;99.90;;;;;;5028010;28;20037;-82
2021/11/28 09:09:03;;;;;;;69.90;26.38;;;3.60;99.90;;;;;;5038585;28;20025;-81
2021/11/28 09:11:28;;;;;;;66.57;25.08;;;3.60;99.90;;;;;;5022217;28;20030;-81
2021/11/28 09:13:54;;;;;;;72.45;26.55;;;3.60;99.90;;;;;;5025842;28;20025;-82
2021/11/28 09:16:20;;;;;;;67.28;25.48;;;3.50;99.90;;;;;;5027093;28;20163;-81
2021/11/28 09:18:57;;;;;;;66.80;25.50;;;3.50;99.90;;;;;;5031059;28;20037;-80
2021/11/28 09:21:23;;;;;;;60.05;23.10;;;3.50;99.90;;;;;;5023311;28;20036;-82
2021/11/28 09:26:33;;;;;;;65.88;24.55;;;3.30;99.90;;;;;;5025675;28;20564;-81
2021/11/28 09:29:04;;;;;;;64.03;24.48;;;3.30;99.90;;;;;;5025846;28;20017;-81
2021/11/28 09:31:30;;;;;;;67.38;25.77;;;3.20;99.90;;;;;;5027605;28;20136;-82
2021/11/28 09:33:56;;;;;;;63.35;25.42;;;3.20;99.90;;;;;;5029754;28;20563;-81
2021/11/28 09:36:24;;;;;;;62.83;25.23;;;3.30;99.90;;;;;;5029373;28;20033;-82
2021/11/28 09:38:50;;;;;;;71.68;26.40;;;3.30;99.90;;;;;;5029657;28;20030;-82
2021/11/28 09:41:17;;;;;;;70.18;26.05;;;3.40;99.90;;;;;;5031150;28;20025;-81
2021/11/28 09:43:49;;;;;;;63.72;24.38;;;3.40;99.90;;;;;;5027806;28;20025;-81
2021/11/28 09:46:20;;;;;;;65.78;24.77;;;3.50;99.90;;;;;;5028090;28;20421;-81
2021/11/28 09:48:48;;;;;;;62.75;25.08;;;3.60;99.90;;;;;;5034266;28;20466;-82
2021/11/28 09:51:15;;;;;;;66.82;24.95;;;3.60;99.90;;;;;;5026205;28;20122;-81
2021/11/28 09:53:42;;;;;;;64.20;25.63;;;3.70;99.90;;;;;;5036275;28;20021;-83
2021/11/28 09:56:07;;;;;;;66.22;25.05;;;3.90;99.90;;;;;;5036835;28;20404;-80
2021/11/28 09:58:33;;;;;;;62.95;24.00;;;4.10;99.90;;;;;;5036269;28;20025;-82
2021/11/28 10:01:01;;;;;;;59.53;24.55;;;4.10;99.90;;;;;;5035192;28;20037;-80
2021/11/28 10:03:27;;;;;;;67.00;27.13;;;4.20;99.90;;;;;;5026886;28;20489;-80
2021/11/28 10:05:55;;;;;;;63.63;25.98;;;4.30;99.90;;;;;;5032881;28;20029;-80
2021/11/28 10:08:22;;;;;;;62.72;25.05;;;4.40;99.90;;;;;;5034673;28;20095;-81
2021/11/28 10:11:16;;;;;;;58.92;25.15;;;4.40;99.90;;;;;;5030759;28;20488;-81
2021/11/28 10:13:43;;;;;;;57.42;24.13;;;4.30;99.90;;;;;;5027420;28;20022;-81
2021/11/28 10:16:09;;;;;;;59.30;25.95;;;4.30;99.90;;;;;;5026707;28;20034;-81
2021/11/28 10:18:36;;;;;;;60.45;27.35;;;4.40;99.90;;;;;;5025053;28;20053;-80
2021/11/28 10:21:02;;;;;;;52.58;24.10;;;4.50;99.90;;;;;;5026659;28;20052;-80
2021/11/28 10:23:28;;;;;;;51.33;24.83;;;4.70;99.90;;;;;;5033617;28;20503;-78
2021/11/28 10:26:15;;;;;;;50.33;23.75;;;4.70;99.90;;;;;;5028135;28;20037;-80
2021/11/28 10:29:07;;;;;;;50.30;23.55;;;4.90;99.90;;;;;;5025571;28;20057;-79
2021/11/28 10:31:50;;;;;;;38.85;19.25;;;4.90;99.90;;;;;;5025052;28;20045;-80
2021/11/28 10:34:20;;;;;;;42.53;21.63;;;4.90;99.90;;;;;;5029194;28;20520;-80
2021/11/28 10:36:47;;;;;;;51.90;24.35;;;4.90;99.90;;;;;;5028541;28;20052;-80
2021/11/28 10:39:22;;;;;;;50.20;22.70;;;4.90;99.90;;;;;;5026996;28;20021;-81
2021/11/28 10:41:53;;;;;;;54.13;23.17;;;5.00;99.90;;;;;;5023612;28;20116;-80
2021/11/28 10:44:21;;;;;;;49.25;20.98;;;5.00;99.90;;;;;;5027936;28;20061;-79
2021/11/28 10:46:48;;;;;;;41.15;21.17;;;5.00;99.90;;;;;;5029403;28;20028;-80
2021/11/28 10:49:15;;;;;;;40.17;19.75;;;5.00;99.90;;;;;;5034101;28;20038;-79
2021/11/28 10:51:49;;;;;;;40.53;19.88;;;4.90;99.90;;;;;;5023211;28;20028;-79
2021/11/28 10:54:35;;;;;;;41.15;20.10;;;4.90;99.90;;;;;;5027374;28;20021;-79
2021/11/28 10:57:10;;;;;;;39.38;19.83;;;4.90;99.90;;;;;;5024178;28;20036;-79
2021/11/28 10:59:40;;;;;;;39.55;19.40;;;4.80;99.90;;;;;;5024838;28;20509;-79
2021/11/28 11:02:20;;;;;;;39.78;20.13;;;4.80;99.90;;;;;;5044111;28;20037;-79
2021/11/28 11:04:46;;;;;;;46.95;20.73;;;4.80;99.90;;;;;;5026013;28;20053;-80
2021/11/28 11:07:14;;;;;;;39.53;19.33;;;4.70;99.90;;;;;;5027782;28;20478;-80
2021/11/28 11:09:42;;;;;;;44.85;20.23;;;4.70;99.90;;;;;;5018395;28;20053;-79
2021/11/28 11:12:17;;;;;;;46.25;21.98;;;4.70;99.90;;;;;;5031587;28;20026;-80
2021/11/28 11:14:43;;;;;;;49.20;22.52;;;4.80;99.90;;;;;;5031012;28;20057;-80
2021/11/28 11:17:11;;;;;;;51.90;23.08;;;4.80;99.90;;;;;;5029059;28;20080;-80
2021/11/28 11:19:44;;;;;;;43.03;20.15;;;4.90;99.90;;;;;;5033097;28;20136;-80
2021/11/28 11:22:12;;;;;;;47.95;23.00;;;4.80;99.90;;;;;;5036664;28;20033;-80
2021/11/28 11:24:40;;;;;;;52.22;21.75;;;4.90;99.90;;;;;;5035702;28;20435;-80
2021/11/28 11:27:12;;;;;;;48.53;21.42;;;4.90;99.90;;;;;;5022583;28;20025;-80
2021/11/28 11:29:39;;;;;;;48.70;21.85;;;5.00;99.90;;;;;;5029667;28;20491;-80
2021/11/28 11:32:12;;;;;;;46.60;22.08;;;5.00;99.90;;;;;;5032337;28;20419;-80
2021/11/28 11:34:38;;;;;;;49.38;21.95;;;5.10;99.90;;;;;;5027725;28;20124;-79
2021/11/28 11:37:12;;;;;;;48.55;22.55;;;5.20;99.90;;;;;;5032610;28;20034;-80
2021/11/28 11:39:39;;;;;;;52.35;23.05;;;5.20;99.90;;;;;;5024309;28;20065;-80
2021/11/28 11:42:05;;;;;;;48.97;22.17;;;5.40;99.90;;;;;;5030035;28;20528;-80
2021/11/28 11:44:31;;;;;;;43.70;20.50;;;5.40;99.90;;;;;;5036212;28;20037;-80
2021/11/28 11:46:59;;;;;;;49.47;23.13;;;5.50;99.90;;;;;;5034167;28;20397;-80
2021/11/28 11:49:27;;;;;;;46.42;20.55;;;5.50;99.90;;;;;;5025907;28;20076;-81
2021/11/28 11:51:53;;;;;;;43.03;20.40;;;5.50;99.90;;;;;;5037091;28;20389;-81
2021/11/28 11:54:26;;;;;;;44.10;21.45;;;5.50;99.90;;;;;;5023024;28;20053;-81
2021/11/28 11:56:57;;;;;;;;;;;5.60;99.90;;;;;;5021694;28;20052;-80
2021/11/28 11:59:39;;;;;;;45.22;21.70;;;5.60;99.90;;;;;;5022836;28;19964;-82
2021/11/28 12:02:06;;;;;;;45.45;20.42;;;5.70;99.90;;;;;;5030026;28;20021;-81
2021/11/28 12:04:59;;;;;;;44.00;20.40;;;5.80;99.90;;;;;;5034169;28;20033;-79
2021/11/28 12:07:51;;;;;;;40.63;19.00;;;5.80;99.90;;;;;;5027957;28;20481;-81
2021/11/28 12:10:34;;;;;;;37.28;17.23;;;5.70;99.90;;;;;;5031128;28;20034;-81
2021/11/28 12:13:02;;;;;;;33.50;15.52;;;5.60;99.90;;;;;;5032643;28;20029;-81
2021/11/28 12:15:37;;;;;;;30.92;15.35;;;5.50;99.90;;;;;;5031838;28;20029;-80
2021/11/28 12:18:05;;;;;;;32.83;16.05;;;5.50;99.90;;;;;;5022677;28;20092;-81
2021/11/28 12:20:43;;;;;;;30.63;15.10;;;5.60;99.90;;;;;;5024672;28;20034;-80
2021/11/28 12:23:09;;;;;;;31.63;15.35;;;5.60;99.90;;;;;;5032153;28;20505;-80
2021/11/28 12:25:50;;;;;;;21.73;11.30;;;5.70;99.90;;;;;;5031843;28;20057;-81
2021/11/28 12:28:25;;;;;;;17.92;8.18;;;5.70;99.90;;;;;;5028221;28;20103;-82
2021/11/28 12:30:53;;;;;;;13.27;7.05;;;5.80;99.90;;;;;;5024295;28;20025;-80
2021/11/28 12:33:19;;;;;;;8.70;4.28;;;5.80;99.90;;;;;;5026111;28;20025;-80
2021/11/28 12:35:45;;;;;;;7.55;3.15;;;5.90;99.90;;;;;;5034948;28;20052;-79
2021/11/28 12:38:11;;;;;;;6.38;2.05;;;5.90;99.90;;;;;;5033732;28;20073;-80
2021/11/28 12:40:45;;;;;;;6.05;2.50;;;5.80;99.90;;;;;;5019305;28;20025;-79
2021/11/28 12:43:21;;;;;;;6.05;1.83;;;5.80;99.90;;;;;;5020824;28;20039;-79
2021/11/28 12:45:47;;;;;;;4.07;1.30;;;5.80;99.90;;;;;;5022722;28;20026;-77
2021/11/28 12:48:23;;;;;;;1.80;0.57;;;5.60;99.90;;;;;;5027141;28;20087;-80
2021/11/28 12:51:04;;;;;;;7.38;0.50;;;5.60;99.90;;;;;;5023437;28;20516;-79